sensor_id;sensor_type;location;lat;lon;timestamp;P1;durP1;ratioP1;P2;durP2;ratioP2
15183;SDS011;7693;49.266;7.104;2022-08-25T05:13:20;9.43;;;8.45;;
15183;SDS011;7693;49.266;7.104;2022-08-25T05:15:53;11.35;;;8.57;;
15183;SDS011;7693;49.266;7.104;2022-08-25T05:18:20;9.75;;;8.20;;
15183;SDS011;7693;49.266;7.104;2022-08-25T05:20:47;12.05;;;8.13;;
15183;SDS011;7693;49.266;7.104;2022-08-25T05:23:13;8.25;;;7.45;;
15183;SDS011;7693;49.266;7.104;2022-08-25T05:25:39;10.43;;;7.53;;
15183;SDS011;7693;49.266;7.104;2022-08-25T05:28:06;8.82;;;7.22;;
15183;SDS011;7693;49.266;7.104;2022-08-25T05:30:32;10.30;;;7.50;;
15183;SDS011;7693;49.266;7.104;2022-08-25T05:32:58;7.85;;;7.05;;
15183;SDS011;7693;49.266;7.104;2022-08-25T05:35:24;6.22;;;5.70;;
15183;SDS011;7693;49.266;7.104;2022-08-25T05:37:49;5.72;;;5.22;;
15183;SDS011;7693;49.266;7.104;2022-08-25T05:40:15;9.00;;;5.25;;
15183;SDS011;7693;49.266;7.104;2022-08-25T05:42:40;7.15;;;4.97;;
15183;SDS011;7693;49.266;7.104;2022-08-25T05:45:06;7.53;;;5.13;;
15183;SDS011;7693;49.266;7.104;2022-08-25T05:47:33;4.80;;;4.20;;
15183;SDS011;7693;49.266;7.104;2022-08-25T05:49:59;4.47;;;4.07;;
15183;SDS011;7693;49.266;7.104;2022-08-25T05:52:25;4.63;;;4.32;;
15183;SDS011;7693;49.266;7.104;2022-08-25T05:54:51;3.95;;;3.70;;
15183;SDS011;7693;49.266;7.104;2022-08-25T05:57:17;4.10;;;3.80;;
15183;SDS011;7693;49.266;7.104;2022-08-25T05:59:43;4.15;;;3.90;;
15183;SDS011;7693;49.266;7.104;2022-08-25T06:02:08;4.35;;;3.72;;
15183;SDS011;7693;49.266;7.104;2022-08-25T06:04:54;3.55;;;3.33;;
15183;SDS011;7693;49.266;7.104;2022-08-25T06:07:19;4.15;;;3.65;;
15183;SDS011;7693;49.266;7.104;2022-08-25T06:09:45;6.75;;;3.67;;
15183;SDS011;7693;49.266;7.104;2022-08-25T06:12:12;5.43;;;3.50;;
15183;SDS011;7693;49.266;7.104;2022-08-25T06:14:38;4.38;;;3.60;;
15183;SDS011;7693;49.266;7.104;2022-08-25T06:17:04;4.00;;;3.50;;
15183;SDS011;7693;49.266;7.104;2022-08-25T06:19:30;3.60;;;3.30;;
15183;SDS011;7693;49.266;7.104;2022-08-25T06:21:56;3.60;;;3.30;;
15183;SDS011;7693;49.266;7.104;2022-08-25T06:24:23;3.75;;;3.35;;
15183;SDS011;7693;49.266;7.104;2022-08-25T06:26:49;4.82;;;3.13;;
15183;SDS011;7693;49.266;7.104;2022-08-25T06:29:15;3.67;;;3.38;;
15183;SDS011;7693;49.266;7.104;2022-08-25T06:31:41;3.45;;;3.22;;
15183;SDS011;7693;49.266;7.104;2022-08-25T06:34:08;5.47;;;3.22;;
15183;SDS011;7693;49.266;7.104;2022-08-25T06:36:33;3.28;;;2.92;;
15183;SDS011;7693;49.266;7.104;2022-08-25T06:38:59;2.85;;;2.72;;
15183;SDS011;7693;49.266;7.104;2022-08-25T06:41:25;3.85;;;3.40;;
15183;SDS011;7693;49.266;7.104;2022-08-25T06:43:51;3.67;;;3.22;;
15183;SDS011;7693;49.266;7.104;2022-08-25T06:46:19;3.15;;;2.95;;
15183;SDS011;7693;49.266;7.104;2022-08-25T06:48:47;3.20;;;3.00;;
15183;SDS011;7693;49.266;7.104;2022-08-25T06:51:14;3.42;;;3.13;;
15183;SDS011;7693;49.266;7.104;2022-08-25T06:53:42;3.58;;;3.20;;
15183;SDS011;7693;49.266;7.104;2022-08-25T06:56:10;3.25;;;3.15;;
15183;SDS011;7693;49.266;7.104;2022-08-25T06:58:36;3.58;;;3.30;;
15183;SDS011;7693;49.266;7.104;2022-08-25T07:01:13;3.45;;;3.25;;
15183;SDS011;7693;49.266;7.104;2022-08-25T07:03:41;3.65;;;3.20;;
15183;SDS011;7693;49.266;7.104;2022-08-25T07:06:07;5.18;;;3.20;;
15183;SDS011;7693;49.266;7.104;2022-08-25T07:08:33;3.00;;;2.80;;
15183;SDS011;7693;49.266;7.104;2022-08-25T07:11:05;4.47;;;3.53;;
15183;SDS011;7693;49.266;7.104;2022-08-25T07:13:32;3.83;;;3.53;;
15183;SDS011;7693;49.266;7.104;2022-08-25T07:15:58;4.55;;;3.50;;
15183;SDS011;7693;49.266;7.104;2022-08-25T07:18:24;4.03;;;3.45;;
15183;SDS011;7693;49.266;7.104;2022-08-25T07:20:50;5.38;;;3.08;;
15183;SDS011;7693;49.266;7.104;2022-08-25T07:23:17;3.58;;;3.28;;
15183;SDS011;7693;49.266;7.104;2022-08-25T07:25:44;5.50;;;3.33;;
15183;SDS011;7693;49.266;7.104;2022-08-25T07:28:10;3.38;;;3.28;;
15183;SDS011;7693;49.266;7.104;2022-08-25T07:30:36;3.00;;;2.90;;
15183;SDS011;7693;49.266;7.104;2022-08-25T07:33:01;3.53;;;3.22;;
15183;SDS011;7693;49.266;7.104;2022-08-25T07:35:27;3.30;;;3.08;;
15183;SDS011;7693;49.266;7.104;2022-08-25T07:37:54;3.42;;;3.13;;
15183;SDS011;7693;49.266;7.104;2022-08-25T07:40:24;3.42;;;3.13;;
15183;SDS011;7693;49.266;7.104;2022-08-25T07:42:56;6.53;;;3.17;;
15183;SDS011;7693;49.266;7.104;2022-08-25T07:45:25;3.78;;;3.33;;
15183;SDS011;7693;49.266;7.104;2022-08-25T07:48:06;3.60;;;3.40;;
15183;SDS011;7693;49.266;7.104;2022-08-25T07:50:34;3.17;;;3.03;;
15183;SDS011;7693;49.266;7.104;2022-08-25T07:53:02;3.42;;;3.28;;
15183;SDS011;7693;49.266;7.104;2022-08-25T07:55:28;3.60;;;3.28;;
15183;SDS011;7693;49.266;7.104;2022-08-25T07:57:54;3.50;;;3.35;;
15183;SDS011;7693;49.266;7.104;2022-08-25T08:00:21;3.38;;;3.17;;
15183;SDS011;7693;49.266;7.104;2022-08-25T08:02:47;3.40;;;3.13;;
15183;SDS011;7693;49.266;7.104;2022-08-25T08:05:13;3.40;;;3.15;;
15183;SDS011;7693;49.266;7.104;2022-08-25T08:07:39;3.40;;;3.08;;
15183;SDS011;7693;49.266;7.104;2022-08-25T08:10:06;6.78;;;2.88;;
15183;SDS011;7693;49.266;7.104;2022-08-25T08:12:33;3.45;;;3.35;;
15183;SDS011;7693;49.266;7.104;2022-08-25T08:15:00;3.20;;;3.10;;
15183;SDS011;7693;49.266;7.104;2022-08-25T08:17:26;3.55;;;3.25;;
15183;SDS011;7693;49.266;7.104;2022-08-25T08:19:52;3.15;;;2.95;;
15183;SDS011;7693;49.266;7.104;2022-08-25T08:22:18;4.78;;;3.13;;
15183;SDS011;7693;49.266;7.104;2022-08-25T08:24:44;5.60;;;2.90;;
15183;SDS011;7693;49.266;7.104;2022-08-25T08:27:11;3.00;;;2.90;;
15183;SDS011;7693;49.266;7.104;2022-08-25T08:29:38;4.93;;;3.10;;
15183;SDS011;7693;49.266;7.104;2022-08-25T08:32:05;3.00;;;2.80;;
15183;SDS011;7693;49.266;7.104;2022-08-25T08:34:33;4.03;;;3.25;;
15183;SDS011;7693;49.266;7.104;2022-08-25T08:36:59;5.00;;;3.08;;
15183;SDS011;7693;49.266;7.104;2022-08-25T08:39:25;3.17;;;2.97;;
15183;SDS011;7693;49.266;7.104;2022-08-25T08:50:27;3.40;;;3.25;;
15183;SDS011;7693;49.266;7.104;2022-08-25T08:55:31;3.47;;;3.38;;
15183;SDS011;7693;49.266;7.104;2022-08-25T08:58:00;3.05;;;2.85;;
15183;SDS011;7693;49.266;7.104;2022-08-25T09:00:29;3.00;;;2.83;;
15183;SDS011;7693;49.266;7.104;2022-08-25T09:05:27;3.20;;;3.10;;
15183;SDS011;7693;49.266;7.104;2022-08-25T09:07:56;6.60;;;3.45;;
15183;SDS011;7693;49.266;7.104;2022-08-25T09:10:27;3.42;;;3.20;;
15183;SDS011;7693;49.266;7.104;2022-08-25T09:13:26;3.58;;;3.38;;
15183;SDS011;7693;49.266;7.104;2022-08-25T09:32:44;3.20;;;3.00;;
15183;SDS011;7693;49.266;7.104;2022-08-25T09:35:20;2.80;;;2.60;;
15183;SDS011;7693;49.266;7.104;2022-08-25T09:38:00;4.45;;;2.65;;
15183;SDS011;7693;49.266;7.104;2022-08-25T09:40:31;3.13;;;3.03;;
15183;SDS011;7693;49.266;7.104;2022-08-25T09:43:00;2.92;;;2.72;;
15183;SDS011;7693;49.266;7.104;2022-08-25T09:45:34;2.65;;;2.40;;
15183;SDS011;7693;49.266;7.104;2022-08-25T09:48:25;3.00;;;2.50;;
15183;SDS011;7693;49.266;7.104;2022-08-25T09:51:09;3.42;;;3.13;;
15183;SDS011;7693;49.266;7.104;2022-08-25T09:56:47;2.47;;;2.38;;
15183;SDS011;7693;49.266;7.104;2022-08-25T09:59:32;2.70;;;2.60;;
15183;SDS011;7693;49.266;7.104;2022-08-25T10:02:01;2.80;;;2.60;;
15183;SDS011;7693;49.266;7.104;2022-08-25T12:53:41;2.70;;;2.50;;
15183;SDS011;7693;49.266;7.104;2022-08-25T13:12:50;2.53;;;2.42;;
15183;SDS011;7693;49.266;7.104;2022-08-25T13:14:58;2.65;;;2.55;;
15183;SDS011;7693;49.266;7.104;2022-08-25T13:17:26;2.63;;;2.40;;
15183;SDS011;7693;49.266;7.104;2022-08-25T13:22:49;2.25;;;2.25;;
15183;SDS011;7693;49.266;7.104;2022-08-25T13:25:18;3.25;;;3.05;;
15183;SDS011;7693;49.266;7.104;2022-08-25T13:27:55;2.45;;;2.30;;
15183;SDS011;7693;49.266;7.104;2022-08-25T13:32:50;2.38;;;2.25;;
15183;SDS011;7693;49.266;7.104;2022-08-25T13:35:21;2.60;;;2.50;;
15183;SDS011;7693;49.266;7.104;2022-08-25T13:37:50;2.25;;;2.25;;
15183;SDS011;7693;49.266;7.104;2022-08-25T13:42:52;2.50;;;2.30;;
15183;SDS011;7693;49.266;7.104;2022-08-25T13:45:33;2.50;;;2.28;;
15183;SDS011;7693;49.266;7.104;2022-08-25T13:48:02;3.38;;;2.40;;
15183;SDS011;7693;49.266;7.104;2022-08-25T13:52:55;2.38;;;2.28;;
15183;SDS011;7693;49.266;7.104;2022-08-25T13:58:17;3.13;;;2.30;;
15183;SDS011;7693;49.266;7.104;2022-08-25T14:01:11;2.17;;;1.95;;
15183;SDS011;7693;49.266;7.104;2022-08-25T14:03:41;2.08;;;1.98;;
15183;SDS011;7693;49.266;7.104;2022-08-25T14:08:40;2.13;;;2.03;;
15183;SDS011;7693;49.266;7.104;2022-08-25T14:14:01;2.63;;;2.42;;
15183;SDS011;7693;49.266;7.104;2022-08-25T14:16:29;2.17;;;2.10;;
15183;SDS011;7693;49.266;7.104;2022-08-25T14:19:00;2.40;;;2.30;;
15183;SDS011;7693;49.266;7.104;2022-08-25T14:21:28;2.15;;;2.10;;
15183;SDS011;7693;49.266;7.104;2022-08-25T14:23:56;2.20;;;2.10;;
15183;SDS011;7693;49.266;7.104;2022-08-25T14:26:22;2.40;;;2.20;;
15183;SDS011;7693;49.266;7.104;2022-08-25T14:28:49;2.47;;;2.35;;
15183;SDS011;7693;49.266;7.104;2022-08-25T14:36:16;2.33;;;2.20;;
15183;SDS011;7693;49.266;7.104;2022-08-25T14:38:41;4.50;;;2.50;;
15183;SDS011;7693;49.266;7.104;2022-08-25T14:41:07;2.17;;;2.10;;
15183;SDS011;7693;49.266;7.104;2022-08-25T14:43:32;2.33;;;2.13;;
15183;SDS011;7693;49.266;7.104;2022-08-25T14:45:59;1.85;;;1.73;;
15183;SDS011;7693;49.266;7.104;2022-08-25T14:48:50;2.55;;;2.17;;
15183;SDS011;7693;49.266;7.104;2022-08-25T14:51:21;2.28;;;2.17;;
15183;SDS011;7693;49.266;7.104;2022-08-25T14:53:48;4.97;;;1.90;;
15183;SDS011;7693;49.266;7.104;2022-08-25T14:56:15;3.00;;;2.28;;
15183;SDS011;7693;49.266;7.104;2022-08-25T14:58:41;2.47;;;2.28;;
15183;SDS011;7693;49.266;7.104;2022-08-25T15:01:07;2.17;;;2.10;;
15183;SDS011;7693;49.266;7.104;2022-08-25T15:03:38;1.98;;;1.88;;
15183;SDS011;7693;49.266;7.104;2022-08-25T15:06:06;2.10;;;2.10;;
15183;SDS011;7693;49.266;7.104;2022-08-25T15:08:35;3.05;;;2.25;;
15183;SDS011;7693;49.266;7.104;2022-08-25T15:11:19;2.17;;;2.08;;
15183;SDS011;7693;49.266;7.104;2022-08-25T15:13:44;2.25;;;2.15;;
15183;SDS011;7693;49.266;7.104;2022-08-25T15:16:11;4.00;;;2.25;;
15183;SDS011;7693;49.266;7.104;2022-08-25T15:18:41;2.55;;;2.10;;
15183;SDS011;7693;49.266;7.104;2022-08-25T15:21:07;2.53;;;2.17;;
15183;SDS011;7693;49.266;7.104;2022-08-25T15:23:33;2.70;;;2.50;;
15183;SDS011;7693;49.266;7.104;2022-08-25T15:25:59;1.90;;;1.90;;
15183;SDS011;7693;49.266;7.104;2022-08-25T15:28:25;2.30;;;2.03;;
15183;SDS011;7693;49.266;7.104;2022-08-25T15:30:51;2.28;;;2.17;;
15183;SDS011;7693;49.266;7.104;2022-08-25T15:33:16;2.40;;;2.30;;
15183;SDS011;7693;49.266;7.104;2022-08-25T15:35:42;2.35;;;2.25;;
15183;SDS011;7693;49.266;7.104;2022-08-25T15:38:09;3.80;;;2.15;;
15183;SDS011;7693;49.266;7.104;2022-08-25T15:40:34;2.00;;;2.00;;
15183;SDS011;7693;49.266;7.104;2022-08-25T15:43:02;2.45;;;2.22;;
15183;SDS011;7693;49.266;7.104;2022-08-25T15:45:28;4.05;;;2.15;;
15183;SDS011;7693;49.266;7.104;2022-08-25T15:47:54;2.45;;;2.25;;
15183;SDS011;7693;49.266;7.104;2022-08-25T15:50:20;2.38;;;2.28;;
15183;SDS011;7693;49.266;7.104;2022-08-25T15:52:47;9.50;;;2.30;;
15183;SDS011;7693;49.266;7.104;2022-08-25T15:55:14;3.22;;;2.20;;
15183;SDS011;7693;49.266;7.104;2022-08-25T15:57:41;2.53;;;2.13;;
15183;SDS011;7693;49.266;7.104;2022-08-25T16:00:07;2.45;;;2.17;;
15183;SDS011;7693;49.266;7.104;2022-08-25T16:02:35;2.50;;;2.30;;
15183;SDS011;7693;49.266;7.104;2022-08-25T16:05:03;2.03;;;1.92;;
15183;SDS011;7693;49.266;7.104;2022-08-25T16:07:30;2.50;;;2.40;;
15183;SDS011;7693;49.266;7.104;2022-08-25T16:09:56;2.75;;;2.50;;
15183;SDS011;7693;49.266;7.104;2022-08-25T16:12:22;3.55;;;2.20;;
15183;SDS011;7693;49.266;7.104;2022-08-25T16:14:49;2.33;;;2.22;;
15183;SDS011;7693;49.266;7.104;2022-08-25T16:17:15;2.50;;;2.40;;
15183;SDS011;7693;49.266;7.104;2022-08-25T16:19:40;2.33;;;2.30;;
15183;SDS011;7693;49.266;7.104;2022-08-25T16:22:06;2.28;;;2.17;;
15183;SDS011;7693;49.266;7.104;2022-08-25T16:24:32;2.30;;;2.13;;
15183;SDS011;7693;49.266;7.104;2022-08-25T16:26:59;4.38;;;2.10;;
15183;SDS011;7693;49.266;7.104;2022-08-25T16:29:29;2.70;;;2.50;;
15183;SDS011;7693;49.266;7.104;2022-08-25T18:41:14;4.35;;;2.60;;
15183;SDS011;7693;49.266;7.104;2022-08-25T18:43:39;2.80;;;2.67;;
15183;SDS011;7693;49.266;7.104;2022-08-25T18:46:05;3.38;;;3.17;;
15183;SDS011;7693;49.266;7.104;2022-08-25T18:48:30;2.85;;;2.60;;
15183;SDS011;7693;49.266;7.104;2022-08-25T18:50:56;6.25;;;2.83;;
15183;SDS011;7693;49.266;7.104;2022-08-25T18:53:24;3.45;;;3.10;;
15183;SDS011;7693;49.266;7.104;2022-08-25T18:55:51;2.78;;;2.63;;
15183;SDS011;7693;49.266;7.104;2022-08-25T18:58:20;3.13;;;2.60;;
15183;SDS011;7693;49.266;7.104;2022-08-25T19:00:47;3.30;;;3.10;;
15183;SDS011;7693;49.266;7.104;2022-08-25T19:03:13;3.75;;;3.53;;
15183;SDS011;7693;49.266;7.104;2022-08-25T19:05:41;3.17;;;2.90;;
15183;SDS011;7693;49.266;7.104;2022-08-25T19:08:09;3.10;;;3.00;;
15183;SDS011;7693;49.266;7.104;2022-08-25T19:10:37;3.05;;;2.95;;
15183;SDS011;7693;49.266;7.104;2022-08-25T19:13:04;2.92;;;2.72;;
15183;SDS011;7693;49.266;7.104;2022-08-25T19:15:30;4.68;;;2.97;;
15183;SDS011;7693;49.266;7.104;2022-08-25T19:17:56;3.47;;;3.20;;
15183;SDS011;7693;49.266;7.104;2022-08-25T19:20:23;5.10;;;3.47;;
15183;SDS011;7693;49.266;7.104;2022-08-25T19:22:50;3.10;;;3.00;;
15183;SDS011;7693;49.266;7.104;2022-08-25T19:25:17;3.50;;;3.30;;
15183;SDS011;7693;49.266;7.104;2022-08-25T19:27:44;3.50;;;3.40;;
15183;SDS011;7693;49.266;7.104;2022-08-25T19:30:12;3.53;;;3.33;;
15183;SDS011;7693;49.266;7.104;2022-08-25T19:32:39;4.68;;;4.05;;
15183;SDS011;7693;49.266;7.104;2022-08-25T19:35:11;3.90;;;3.70;;
15183;SDS011;7693;49.266;7.104;2022-08-25T19:37:49;3.80;;;3.60;;
15183;SDS011;7693;49.266;7.104;2022-08-25T19:40:16;8.00;;;4.18;;
15183;SDS011;7693;49.266;7.104;2022-08-25T19:42:44;4.78;;;4.18;;
15183;SDS011;7693;49.266;7.104;2022-08-25T19:45:10;5.82;;;4.03;;
15183;SDS011;7693;49.266;7.104;2022-08-25T19:47:36;4.05;;;3.75;;
15183;SDS011;7693;49.266;7.104;2022-08-25T19:50:03;4.60;;;4.20;;
15183;SDS011;7693;49.266;7.104;2022-08-25T19:52:31;3.97;;;3.78;;
15183;SDS011;7693;49.266;7.104;2022-08-25T19:54:58;5.57;;;4.25;;
15183;SDS011;7693;49.266;7.104;2022-08-25T19:57:26;4.22;;;3.92;;
15183;SDS011;7693;49.266;7.104;2022-08-25T19:59:53;4.90;;;4.57;;
15183;SDS011;7693;49.266;7.104;2022-08-25T20:02:20;5.05;;;4.65;;
15183;SDS011;7693;49.266;7.104;2022-08-25T20:04:49;4.72;;;4.50;;
15183;SDS011;7693;49.266;7.104;2022-08-25T20:07:20;5.60;;;4.82;;
15183;SDS011;7693;49.266;7.104;2022-08-25T20:09:48;4.90;;;4.50;;
15183;SDS011;7693;49.266;7.104;2022-08-25T20:12:15;5.05;;;4.65;;
15183;SDS011;7693;49.266;7.104;2022-08-25T20:14:41;5.60;;;4.95;;
15183;SDS011;7693;49.266;7.104;2022-08-25T20:17:07;5.03;;;4.57;;
15183;SDS011;7693;49.266;7.104;2022-08-25T20:19:32;4.60;;;4.20;;
15183;SDS011;7693;49.266;7.104;2022-08-25T20:21:58;5.93;;;4.95;;
15183;SDS011;7693;49.266;7.104;2022-08-25T20:24:23;5.32;;;4.93;;
15183;SDS011;7693;49.266;7.104;2022-08-25T20:27:08;4.28;;;4.07;;
15183;SDS011;7693;49.266;7.104;2022-08-25T20:29:34;4.85;;;4.55;;
15183;SDS011;7693;49.266;7.104;2022-08-25T20:31:59;4.40;;;4.18;;
15183;SDS011;7693;49.266;7.104;2022-08-25T20:34:28;4.95;;;4.45;;
15183;SDS011;7693;49.266;7.104;2022-08-25T20:36:54;4.93;;;4.63;;
15183;SDS011;7693;49.266;7.104;2022-08-25T20:39:20;4.75;;;4.38;;
15183;SDS011;7693;49.266;7.104;2022-08-25T20:41:49;5.63;;;4.88;;
15183;SDS011;7693;49.266;7.104;2022-08-25T20:44:15;4.90;;;4.30;;
15183;SDS011;7693;49.266;7.104;2022-08-25T20:46:42;5.15;;;4.70;;
15183;SDS011;7693;49.266;7.104;2022-08-25T20:49:07;4.80;;;4.50;;
15183;SDS011;7693;49.266;7.104;2022-08-25T20:51:33;4.85;;;4.45;;
15183;SDS011;7693;49.266;7.104;2022-08-25T20:53:58;7.03;;;4.95;;
15183;SDS011;7693;49.266;7.104;2022-08-25T20:56:24;4.97;;;4.40;;
15183;SDS011;7693;49.266;7.104;2022-08-25T20:58:50;5.32;;;4.90;;
15183;SDS011;7693;49.266;7.104;2022-08-25T21:01:17;5.00;;;4.70;;
15183;SDS011;7693;49.266;7.104;2022-08-25T21:03:44;4.63;;;4.32;;
15183;SDS011;7693;49.266;7.104;2022-08-25T21:06:10;5.18;;;4.78;;
15183;SDS011;7693;49.266;7.104;2022-08-25T21:08:38;4.85;;;4.55;;
15183;SDS011;7693;49.266;7.104;2022-08-25T21:11:11;5.22;;;4.40;;
15183;SDS011;7693;49.266;7.104;2022-08-25T21:13:39;5.03;;;4.55;;
15183;SDS011;7693;49.266;7.104;2022-08-25T21:16:06;5.60;;;5.20;;
15183;SDS011;7693;49.266;7.104;2022-08-25T21:18:32;4.95;;;4.65;;
15183;SDS011;7693;49.266;7.104;2022-08-25T21:21:09;6.20;;;5.60;;
15183;SDS011;7693;49.266;7.104;2022-08-25T21:23:38;5.25;;;4.95;;
15183;SDS011;7693;49.266;7.104;2022-08-25T21:26:05;5.68;;;5.35;;
15183;SDS011;7693;49.266;7.104;2022-08-25T21:28:35;6.82;;;5.47;;
15183;SDS011;7693;49.266;7.104;2022-08-25T21:31:01;7.25;;;5.57;;
15183;SDS011;7693;49.266;7.104;2022-08-25T21:33:30;6.45;;;5.95;;
15183;SDS011;7693;49.266;7.104;2022-08-25T21:35:55;6.82;;;6.15;;
15183;SDS011;7693;49.266;7.104;2022-08-25T21:38:21;6.95;;;6.35;;
15183;SDS011;7693;49.266;7.104;2022-08-25T21:40:46;6.65;;;6.13;;
15183;SDS011;7693;49.266;7.104;2022-08-25T21:43:12;7.03;;;6.32;;
15183;SDS011;7693;49.266;7.104;2022-08-25T21:45:38;8.85;;;6.05;;
15183;SDS011;7693;49.266;7.104;2022-08-25T21:48:05;7.35;;;6.20;;
15183;SDS011;7693;49.266;7.104;2022-08-25T21:50:37;11.20;;;6.20;;
